Hartline, Washington
Current Conditions -  °F | °C
As of 3:16 AM on Tuesday 21 Oct 2014 (Local Time) from KEPH Reporting Station
Haze Haze  
Wind Chill: 42°   Ceiling: 100
Heat Index: 45°   Visibility: 1mi
Dew Point: 45°   Wind: 6mph
Humidity: 100%   Direction: 160°SSE
Pressure: 29.8"   Gusts: NA
Location:  47.69°N, 119.11°W
Report Text: KEPH 211016Z AUTO 16005KT 1SM BR VV001 07/07 A2980 RMK AO2 T00720072
Loading
Personal Weather Stations






























Interactive Weather Map
Tropical Storm Tracking
New forecast layout! Learn more

10-Day Weather Forecast

Advertisements
Track Severe Weather on mobile